createdAt,value
2022-11-04T00:02:43.617Z,4.03
2022-11-04T00:08:07.571Z,4.14
2022-11-04T00:13:16.832Z,4.19
2022-11-04T00:18:23.395Z,4.25
2022-11-04T00:23:50.045Z,4.41
2022-11-04T00:28:57.969Z,4.59
2022-11-04T00:34:04.858Z,4.87
2022-11-04T00:39:11.849Z,4.99
2022-11-04T00:44:19.896Z,5.13
2022-11-04T00:49:26.361Z,5.26
2022-11-04T00:54:32.840Z,5.42
2022-11-04T00:59:41.060Z,5.58
2022-11-04T01:04:48.898Z,5.60
2022-11-04T01:09:55.780Z,5.61
2022-11-04T01:15:03.826Z,5.84
2022-11-04T01:20:13.754Z,5.97
2022-11-04T01:25:20.526Z,6.09
2022-11-04T01:30:28.667Z,6.27
2022-11-04T01:35:35.349Z,6.41
2022-11-04T01:40:42.683Z,6.49
2022-11-04T01:45:55.293Z,6.56
2022-11-04T01:51:02.640Z,6.58
2022-11-04T01:56:14.626Z,6.60
2022-11-04T02:01:22.996Z,6.59
2022-11-04T02:06:29.531Z,6.65
2022-11-04T02:11:53.408Z,6.70
2022-11-04T02:17:14.758Z,6.71
2022-11-04T02:23:09.395Z,6.72
2022-11-04T02:28:47.795Z,6.76
2022-11-04T02:34:06.848Z,6.71
2022-11-04T02:39:26.558Z,6.73
2022-11-04T02:44:37.132Z,6.79
2022-11-04T02:49:53.251Z,6.82
2022-11-04T02:55:06.177Z,6.82
2022-11-04T03:00:15.940Z,6.82
2022-11-04T03:05:28.571Z,6.82
2022-11-04T03:10:40.377Z,6.82
2022-11-04T03:15:53.920Z,6.84
2022-11-04T03:21:07.675Z,6.86
2022-11-04T03:26:35.561Z,6.92
2022-11-04T03:31:49.238Z,6.98
2022-11-04T03:36:57.555Z,7.01
2022-11-04T03:42:20.901Z,7.02
2022-11-04T03:47:31.201Z,7.04
2022-11-04T03:52:40.147Z,7.03
2022-11-04T03:57:53.819Z,7.02
2022-11-04T04:03:10.629Z,7.00
2022-11-04T04:08:30.625Z,7.00
2022-11-04T04:13:42.852Z,7.00
2022-11-04T04:18:57.554Z,6.99
2022-11-04T04:24:28.478Z,6.96
2022-11-04T04:29:35.552Z,6.99
2022-11-04T04:34:42.379Z,6.99
2022-11-04T04:40:13.026Z,7.01
2022-11-04T04:45:26.766Z,7.04
2022-11-04T04:50:42.675Z,7.05
2022-11-04T04:55:50.590Z,7.01
2022-11-04T05:00:57.212Z,6.98
2022-11-04T05:06:03.630Z,6.94
2022-11-04T05:11:11.845Z,6.94
2022-11-04T05:16:18.559Z,6.92
2022-11-04T05:21:25.142Z,6.96
2022-11-04T05:26:33.184Z,7.01
2022-11-04T05:31:39.792Z,7.02
2022-11-04T05:36:46.138Z,7.05
2022-11-04T05:41:54.073Z,7.09
2022-11-04T05:47:00.845Z,7.12
2022-11-04T05:52:08.569Z,7.12
2022-11-04T05:57:16.286Z,7.16
2022-11-04T06:02:23.151Z,7.18
2022-11-04T06:07:29.955Z,7.19
2022-11-04T06:12:37.868Z,7.20
2022-11-04T06:17:44.481Z,7.25
2022-11-04T06:22:51.772Z,7.27
2022-11-04T06:28:00.168Z,7.29
2022-11-04T06:33:06.767Z,7.30
2022-11-04T06:38:13.474Z,7.31
2022-11-04T06:43:21.480Z,7.32
2022-11-04T06:48:28.625Z,7.34
2022-11-04T06:53:35.061Z,7.37
2022-11-04T06:58:43.466Z,7.44
2022-11-04T07:03:52.640Z,7.48
2022-11-04T07:09:01.992Z,7.50
2022-11-04T07:14:11.663Z,7.54
2022-11-04T07:19:18.420Z,7.59
2022-11-04T07:24:25.233Z,7.64
2022-11-04T07:29:33.115Z,7.71
2022-11-04T07:34:39.647Z,7.74
2022-11-04T07:39:46.015Z,7.80
2022-11-04T07:44:53.831Z,7.83
2022-11-04T07:50:01.450Z,7.86
2022-11-04T07:55:14.344Z,7.86
2022-11-04T08:00:22.276Z,7.87
2022-11-04T08:05:28.344Z,7.87
2022-11-04T08:10:34.843Z,7.90
2022-11-04T08:15:42.692Z,7.95
2022-11-04T08:20:52.751Z,7.99
2022-11-04T08:25:59.414Z,8.01
2022-11-04T08:31:09.623Z,8.06
2022-11-04T08:36:19.748Z,8.11
2022-11-04T08:41:29.358Z,8.14
2022-11-04T08:46:40.263Z,8.15
2022-11-04T08:51:49.974Z,8.20
2022-11-04T08:56:56.214Z,8.20
2022-11-04T09:02:07.217Z,8.17
2022-11-04T09:07:14.112Z,8.19
2022-11-04T09:12:20.913Z,8.20
2022-11-04T09:17:29.129Z,8.20
2022-11-04T09:22:36.015Z,8.25
2022-11-04T09:27:42.731Z,8.34
2022-11-04T09:32:52.907Z,8.51
2022-11-04T09:38:02.654Z,8.59
2022-11-04T09:43:28.167Z,8.63
2022-11-04T09:48:42.259Z,8.69
2022-11-04T09:53:53.149Z,8.72
2022-11-04T09:58:59.924Z,8.76
2022-11-04T10:04:26.861Z,8.86
2022-11-04T10:09:46.909Z,9.02
2022-11-04T10:15:32.897Z,9.16
2022-11-04T10:20:54.751Z,9.33
2022-11-04T10:26:10.916Z,9.43
2022-11-04T10:31:22.960Z,9.50
2022-11-04T10:36:31.256Z,9.57
2022-11-04T10:41:41.116Z,9.64
2022-11-04T10:46:57.927Z,9.73
2022-11-04T10:52:06.004Z,9.75
2022-11-04T10:57:13.508Z,9.89
2022-11-04T11:02:20.698Z,9.96
2022-11-04T11:07:39.198Z,10.02
2022-11-04T11:12:52.035Z,10.14
2022-11-04T11:18:15.365Z,10.18
2022-11-04T11:23:47.646Z,10.16
2022-11-04T11:28:59.540Z,10.17
2022-11-04T11:34:15.803Z,10.25
2022-11-04T11:39:28.410Z,10.31
2022-11-04T11:44:44.573Z,10.35
2022-11-04T11:50:08.229Z,10.41
2022-11-04T12:01:03.171Z,10.58
2022-11-04T12:06:31.224Z,10.60
2022-11-04T12:11:54.355Z,10.77
2022-11-04T12:17:16.431Z,10.86
2022-11-04T12:22:35.757Z,10.89
2022-11-04T12:27:53.978Z,10.84
2022-11-04T12:33:22.669Z,10.79
2022-11-04T12:38:51.464Z,10.79
2022-11-04T12:44:07.913Z,10.82
2022-11-04T12:49:52.565Z,10.79
2022-11-04T12:55:19.864Z,10.73
2022-11-04T13:00:28.749Z,10.67
2022-11-04T13:05:45.846Z,10.59
2022-11-04T13:10:59.007Z,10.59
2022-11-04T13:16:12.515Z,10.62
2022-11-04T13:21:23.826Z,10.64
2022-11-04T13:26:30.142Z,10.57
2022-11-04T13:31:50.755Z,10.55
2022-11-04T13:37:11.555Z,10.55
2022-11-04T13:42:48.773Z,10.52
2022-11-04T13:47:59.986Z,10.45
2022-11-04T13:53:07.810Z,10.36
2022-11-04T13:58:25.518Z,10.29
2022-11-04T14:03:54.274Z,10.23
2022-11-04T14:09:53.975Z,10.26
2022-11-04T14:15:18.561Z,10.28
2022-11-04T14:20:34.384Z,10.28
2022-11-04T14:25:42.204Z,10.24
2022-11-04T14:30:52.556Z,10.20
2022-11-04T14:36:31.515Z,10.14
2022-11-04T14:41:55.539Z,10.07
2022-11-04T14:47:15.504Z,10.05
2022-11-04T14:52:31.299Z,10.01
2022-11-04T14:57:43.803Z,9.98
2022-11-04T15:02:59.855Z,9.98
2022-11-04T15:08:33.388Z,9.94
2022-11-04T15:13:47.561Z,9.91
2022-11-04T15:18:54.947Z,9.88
2022-11-04T15:24:03.310Z,9.84
2022-11-04T15:29:13.032Z,9.84
2022-11-04T15:34:20.056Z,9.82
2022-11-04T15:39:33.187Z,9.81
2022-11-04T15:44:46.671Z,9.83
2022-11-04T15:49:56.708Z,9.82
2022-11-04T15:55:06.063Z,9.83
2022-11-04T16:00:26.163Z,9.82
2022-11-04T16:05:35.917Z,9.79
2022-11-04T16:10:44.598Z,9.77
2022-11-04T16:15:53.550Z,9.69
2022-11-04T16:21:01.232Z,9.62
2022-11-04T16:26:12.758Z,9.53
2022-11-04T16:31:30.470Z,9.47
2022-11-04T16:36:36.648Z,9.46
2022-11-04T16:41:44.707Z,9.44
2022-11-04T16:46:51.504Z,9.48
2022-11-04T16:52:03.011Z,9.48
2022-11-04T16:57:14.850Z,9.51
2022-11-04T17:02:28.065Z,9.52
2022-11-04T17:07:52.090Z,9.53
2022-11-04T17:13:01.531Z,9.49
2022-11-04T17:18:08.464Z,9.46
2022-11-04T17:23:17.833Z,9.50
2022-11-04T17:28:27.481Z,9.52
2022-11-04T17:33:34.513Z,9.53
2022-11-04T17:38:41.158Z,9.54
2022-11-04T17:44:03.819Z,9.56
2022-11-04T17:56:05.865Z,9.59
2022-11-04T18:01:17.758Z,9.64
2022-11-04T18:06:25.401Z,9.63
2022-11-04T18:11:50.392Z,9.63
2022-11-04T18:17:25.176Z,9.64
2022-11-04T18:22:57.842Z,9.62
2022-11-04T18:28:10.881Z,9.59
2022-11-04T18:39:20.898Z,9.54
2022-11-04T18:44:31.653Z,9.56
2022-11-04T18:49:49.610Z,9.57
2022-11-04T18:54:58.749Z,9.53
2022-11-04T19:00:10.562Z,9.49
2022-11-04T19:05:21.262Z,9.51
2022-11-04T19:10:31.114Z,9.54
2022-11-04T19:15:38.334Z,9.51
2022-11-04T19:20:54.777Z,9.46
2022-11-04T19:26:08.497Z,9.47
2022-11-04T19:31:18.239Z,9.46
2022-11-04T19:36:26.885Z,9.47
2022-11-04T19:41:53.438Z,9.41
2022-11-04T19:47:00.416Z,9.40
2022-11-04T19:52:09.549Z,9.39
2022-11-04T19:57:18.543Z,9.35
2022-11-04T20:02:25.732Z,9.31
2022-11-04T20:07:33.917Z,9.27
2022-11-04T20:13:01.760Z,9.27
2022-11-04T20:18:17.774Z,9.27
2022-11-04T20:23:25.082Z,9.23
2022-11-04T20:28:33.633Z,9.27
2022-11-04T20:34:57.855Z,9.28
2022-11-04T20:40:11.894Z,9.25
2022-11-04T20:45:24.415Z,9.25
2022-11-04T20:50:32.648Z,9.21
2022-11-04T20:55:41.984Z,9.22
2022-11-04T21:00:53.899Z,9.24
2022-11-04T21:06:05.995Z,9.21
2022-11-04T21:11:17.134Z,9.23
2022-11-04T21:16:35.667Z,9.20
2022-11-04T21:21:45.702Z,9.20
2022-11-04T21:26:56.803Z,9.19
2022-11-04T21:32:09.949Z,9.21
2022-11-04T21:37:16.668Z,9.20
2022-11-04T21:42:23.567Z,9.17
2022-11-04T21:47:31.854Z,9.16
2022-11-04T21:52:38.162Z,9.14
2022-11-04T21:57:45.283Z,9.14
2022-11-04T22:02:53.669Z,9.12
2022-11-04T22:08:19.043Z,9.09
2022-11-04T22:13:26.352Z,9.09
2022-11-04T22:18:36.054Z,9.06
2022-11-04T22:23:43.020Z,9.06
2022-11-04T22:28:50.015Z,9.06
2022-11-04T22:33:59.022Z,9.04
2022-11-04T22:39:06.826Z,9.05
2022-11-04T22:44:14.562Z,9.02
2022-11-04T22:49:22.517Z,9.03
2022-11-04T22:54:28.687Z,9.01
2022-11-04T22:59:34.822Z,9.01
2022-11-04T23:04:45.375Z,9.03
2022-11-04T23:10:09.091Z,9.03
2022-11-04T23:15:32.201Z,9.01
2022-11-04T23:20:40.396Z,9.02
2022-11-04T23:25:47.010Z,9.02
2022-11-04T23:30:54.572Z,9.01
2022-11-04T23:36:19.748Z,9.02
2022-11-04T23:41:42.787Z,9.02
2022-11-04T23:47:06.064Z,9.02
2022-11-04T23:52:30.499Z,9.00
2022-11-04T23:57:55.419Z,8.99
